createdAt,value
2017-08-03T00:00:33.133Z,0
2017-08-03T00:01:34.004Z,0
2017-08-03T00:02:34.625Z,0
2017-08-03T00:03:35.245Z,0
2017-08-03T00:04:35.867Z,0
2017-08-03T00:05:36.484Z,0
2017-08-03T00:06:37.211Z,0
2017-08-03T00:07:37.830Z,0
2017-08-03T00:08:38.450Z,0
2017-08-03T00:09:39.070Z,0
2017-08-03T00:10:39.690Z,0
2017-08-03T00:11:40.611Z,0
2017-08-03T00:12:41.335Z,0
2017-08-03T00:13:41.954Z,0
2017-08-03T00:14:42.575Z,0
2017-08-03T00:15:43.194Z,0
2017-08-03T00:16:43.820Z,0
2017-08-03T00:17:44.544Z,0
2017-08-03T00:18:45.162Z,0
2017-08-03T00:19:45.781Z,0
2017-08-03T00:20:46.402Z,0
2017-08-03T00:21:47.030Z,0
2017-08-03T00:22:47.802Z,0
2017-08-03T00:23:48.426Z,0
2017-08-03T00:24:49.051Z,0
2017-08-03T00:25:49.668Z,0
2017-08-03T00:26:50.294Z,0
2017-08-03T00:27:51.168Z,0
2017-08-03T00:28:51.786Z,0
2017-08-03T00:29:52.404Z,0
2017-08-03T00:30:53.028Z,0
2017-08-03T00:31:53.648Z,0
2017-08-03T00:32:54.418Z,0
2017-08-03T00:33:55.038Z,0
2017-08-03T00:34:55.660Z,0
2017-08-03T00:35:56.281Z,0
2017-08-03T00:36:56.901Z,0
2017-08-03T00:37:57.627Z,0
2017-08-03T00:38:58.252Z,0
2017-08-03T00:39:58.875Z,0
2017-08-03T00:40:59.514Z,0
2017-08-03T00:42:00.120Z,0
2017-08-03T00:43:00.838Z,0
2017-08-03T00:44:01.463Z,0
2017-08-03T00:45:02.081Z,0
2017-08-03T00:46:02.705Z,0
2017-08-03T00:47:03.323Z,0
2017-08-03T00:48:04.147Z,0
2017-08-03T00:49:04.764Z,0
2017-08-03T00:50:05.383Z,0
2017-08-03T00:51:06.038Z,0
2017-08-03T00:52:06.688Z,0
2017-08-03T00:53:07.408Z,0
2017-08-03T00:54:08.284Z,0
2017-08-03T00:55:08.903Z,0
2017-08-03T00:56:09.528Z,0
2017-08-03T00:57:10.146Z,0
2017-08-03T00:58:10.767Z,0
2017-08-03T00:59:11.618Z,0
2017-08-03T01:00:12.243Z,0
2017-08-03T01:01:12.862Z,0
2017-08-03T01:02:13.481Z,0
2017-08-03T01:03:14.101Z,0
2017-08-03T01:04:14.824Z,0
2017-08-03T01:05:15.442Z,0
2017-08-03T01:06:16.068Z,0
2017-08-03T01:07:16.685Z,0
2017-08-03T01:08:17.305Z,0
2017-08-03T01:09:18.025Z,0
2017-08-03T01:10:18.643Z,0
2017-08-03T01:11:19.270Z,0
2017-08-03T01:12:19.923Z,0
2017-08-03T01:13:20.548Z,0
2017-08-03T01:14:21.401Z,0
2017-08-03T01:15:22.022Z,0
2017-08-03T01:16:22.643Z,0
2017-08-03T01:17:23.268Z,0
2017-08-03T01:18:23.884Z,0
2017-08-03T01:19:24.638Z,0
2017-08-03T01:20:25.259Z,0
2017-08-03T01:21:25.881Z,0
2017-08-03T01:22:26.499Z,0
2017-08-03T01:23:27.120Z,0
2017-08-03T01:24:27.856Z,0
2017-08-03T01:25:28.505Z,0
2017-08-03T01:26:29.122Z,0
2017-08-03T01:27:29.742Z,0
2017-08-03T01:28:30.562Z,0
2017-08-03T01:29:31.288Z,0
2017-08-03T01:30:31.905Z,0
2017-08-03T01:31:32.628Z,0
2017-08-03T01:32:33.280Z,0
2017-08-03T01:33:33.900Z,0
2017-08-03T01:34:34.519Z,0
2017-08-03T01:35:35.140Z,0
2017-08-03T01:36:35.858Z,0
2017-08-03T01:37:36.476Z,0
2017-08-03T01:38:37.096Z,0
2017-08-03T01:39:37.722Z,0
2017-08-03T01:40:38.338Z,0
2017-08-03T01:41:39.156Z,0
2017-08-03T01:42:39.883Z,0
2017-08-03T01:43:40.502Z,0
2017-08-03T01:44:41.122Z,0
2017-08-03T01:45:41.743Z,0
2017-08-03T01:46:42.363Z,0
2017-08-03T01:47:43.082Z,0
2017-08-03T01:48:43.708Z,0
2017-08-03T01:49:44.327Z,0
2017-08-03T01:50:44.947Z,0
2017-08-03T01:51:45.566Z,0
2017-08-03T01:52:46.285Z,0
2017-08-03T01:53:46.905Z,0
2017-08-03T01:54:47.527Z,0
2017-08-03T01:55:48.147Z,0
2017-08-03T01:56:48.766Z,0
2017-08-03T01:57:49.485Z,0
2017-08-03T01:58:50.106Z,0
2017-08-03T01:59:50.726Z,0
2017-08-03T02:00:51.345Z,0
2017-08-03T02:01:51.965Z,0
2017-08-03T02:02:52.684Z,0
2017-08-03T02:03:53.305Z,0
2017-08-03T02:04:53.923Z,0
2017-08-03T02:05:54.548Z,0
2017-08-03T02:06:55.164Z,0
2017-08-03T02:07:55.889Z,0
2017-08-03T02:08:56.511Z,0
2017-08-03T02:09:57.126Z,0
2017-08-03T02:10:57.748Z,0
2017-08-03T02:11:58.366Z,0
2017-08-03T02:12:59.085Z,0
2017-08-03T02:13:59.705Z,0
2017-08-03T02:15:00.326Z,0
2017-08-03T02:16:00.946Z,0
2017-08-03T02:17:01.563Z,0
2017-08-03T02:18:02.281Z,0
2017-08-03T02:19:02.901Z,0
2017-08-03T02:20:03.527Z,0
2017-08-03T02:21:04.144Z,0
2017-08-03T02:22:04.766Z,0
2017-08-03T02:23:05.514Z,0
2017-08-03T02:24:06.268Z,0
2017-08-03T02:25:06.888Z,0
2017-08-03T02:26:07.504Z,0
2017-08-03T02:27:08.126Z,0
2017-08-03T02:28:08.756Z,0
2017-08-03T02:29:09.462Z,0
2017-08-03T02:30:10.082Z,0
2017-08-03T02:31:10.701Z,0
2017-08-03T02:32:11.331Z,0
2017-08-03T02:33:11.984Z,0
2017-08-03T02:34:12.700Z,0
2017-08-03T02:35:13.321Z,0
2017-08-03T02:36:13.946Z,0
2017-08-03T02:37:14.598Z,0
2017-08-03T02:38:15.218Z,0
2017-08-03T02:39:15.935Z,0
2017-08-03T02:40:16.563Z,0
2017-08-03T02:41:17.179Z,0
2017-08-03T02:42:17.798Z,0
2017-08-03T02:43:18.418Z,0
2017-08-03T02:44:19.144Z,0
2017-08-03T02:45:19.756Z,0
2017-08-03T02:46:20.377Z,0
2017-08-03T02:47:20.994Z,0
2017-08-03T02:48:21.617Z,0
2017-08-03T02:49:22.333Z,0
2017-08-03T02:50:22.986Z,0
2017-08-03T02:51:23.605Z,0
2017-08-03T02:52:24.226Z,0
2017-08-03T02:53:24.845Z,0
2017-08-03T02:54:25.564Z,0
2017-08-03T02:55:26.288Z,0
2017-08-03T02:56:26.905Z,0
2017-08-03T02:57:27.523Z,0
2017-08-03T02:58:28.141Z,0
2017-08-03T02:59:28.758Z,0
2017-08-03T03:00:29.484Z,0
2017-08-03T03:01:30.099Z,0
2017-08-03T03:02:30.719Z,0
2017-08-03T03:03:31.372Z,0
2017-08-03T03:04:32.091Z,0
2017-08-03T03:05:32.811Z,0
2017-08-03T03:06:33.466Z,0
2017-08-03T03:07:34.119Z,0
2017-08-03T03:08:34.744Z,0
2017-08-03T03:09:35.361Z,0
2017-08-03T03:10:36.086Z,0
2017-08-03T03:11:36.739Z,0
2017-08-03T03:12:37.360Z,0
2017-08-03T03:13:38.014Z,0
2017-08-03T03:14:38.633Z,0
2017-08-03T03:15:39.352Z,0
2017-08-03T03:16:39.971Z,0
2017-08-03T03:17:40.591Z,0
2017-08-03T03:18:41.216Z,0
2017-08-03T03:19:41.831Z,0
2017-08-03T03:20:42.553Z,0
2017-08-03T03:21:43.174Z,0
2017-08-03T03:22:43.795Z,0
2017-08-03T03:23:44.414Z,0
2017-08-03T03:24:45.033Z,0
2017-08-03T03:25:45.752Z,0
2017-08-03T03:26:46.374Z,0
2017-08-03T03:27:46.995Z,0
2017-08-03T03:28:47.613Z,0
2017-08-03T03:29:48.237Z,0
2017-08-03T03:30:48.959Z,0
2017-08-03T03:31:49.677Z,0
2017-08-03T03:32:50.294Z,0
2017-08-03T03:33:50.913Z,0
2017-08-03T03:34:51.532Z,0
2017-08-03T03:35:52.255Z,0
2017-08-03T03:36:53.010Z,0
2017-08-03T03:37:53.633Z,0
2017-08-03T03:38:54.256Z,0
2017-08-03T03:39:54.874Z,0
2017-08-03T03:40:55.528Z,0
2017-08-03T03:41:56.254Z,0
2017-08-03T03:42:56.871Z,0
2017-08-03T03:43:57.492Z,0
2017-08-03T03:44:58.112Z,0
2017-08-03T03:45:58.732Z,0
2017-08-03T03:46:59.451Z,0
2017-08-03T03:48:00.070Z,0
2017-08-03T03:49:00.722Z,0
2017-08-03T03:50:01.351Z,0
2017-08-03T03:51:02.001Z,0
2017-08-03T03:52:02.727Z,0
2017-08-03T03:53:03.344Z,0
2017-08-03T03:54:03.994Z,0
2017-08-03T03:55:04.612Z,0
2017-08-03T03:56:05.231Z,0
2017-08-03T03:57:05.956Z,0
2017-08-03T03:58:06.573Z,0
2017-08-03T03:59:07.198Z,0
2017-08-03T04:00:07.815Z,0
2017-08-03T04:01:08.474Z,0
2017-08-03T04:02:09.187Z,0
2017-08-03T04:03:09.906Z,0
2017-08-03T04:04:10.525Z,0
2017-08-03T04:05:11.144Z,0
2017-08-03T04:06:11.764Z,4
2017-08-03T04:07:12.384Z,0
2017-08-03T04:08:13.111Z,0
2017-08-03T04:09:13.731Z,4
2017-08-03T04:10:14.373Z,0
2017-08-03T04:11:14.971Z,4
2017-08-03T04:12:15.589Z,0
2017-08-03T04:13:16.309Z,4
2017-08-03T04:14:16.926Z,0
2017-08-03T04:15:17.546Z,4
2017-08-03T04:16:18.171Z,4
2017-08-03T04:17:18.788Z,0
2017-08-03T04:18:19.509Z,4
2017-08-03T04:19:20.128Z,4
2017-08-03T04:20:20.749Z,4
2017-08-03T04:21:21.370Z,8
2017-08-03T04:22:21.991Z,8
2017-08-03T04:23:22.744Z,8
2017-08-03T04:24:23.368Z,8
2017-08-03T04:25:23.984Z,4
2017-08-03T04:26:24.605Z,8
2017-08-03T04:27:25.230Z,8
2017-08-03T04:28:25.952Z,8
2017-08-03T04:29:26.567Z,8
2017-08-03T04:30:27.189Z,8
2017-08-03T04:31:27.818Z,8
2017-08-03T04:32:28.474Z,12
2017-08-03T04:33:29.196Z,12
2017-08-03T04:34:29.814Z,12
2017-08-03T04:35:30.436Z,12
2017-08-03T04:36:31.063Z,12
2017-08-03T04:37:31.687Z,12
2017-08-03T04:38:32.409Z,16
2017-08-03T04:39:33.033Z,16
2017-08-03T04:40:33.652Z,16
2017-08-03T04:41:34.271Z,20
2017-08-03T04:42:34.898Z,16
2017-08-03T04:43:35.616Z,20
2017-08-03T04:44:36.243Z,20
2017-08-03T04:45:36.895Z,20
2017-08-03T04:46:37.548Z,24
2017-08-03T04:47:38.167Z,24
2017-08-03T04:48:38.887Z,20
2017-08-03T04:49:39.509Z,24
2017-08-03T04:50:40.134Z,24
2017-08-03T04:51:40.751Z,24
2017-08-03T04:52:41.370Z,24
2017-08-03T04:53:42.097Z,28
2017-08-03T04:54:42.815Z,28
2017-08-03T04:55:43.438Z,28
2017-08-03T04:56:44.059Z,28
2017-08-03T04:57:44.714Z,32
2017-08-03T04:58:45.341Z,32
2017-08-03T04:59:46.095Z,32
2017-08-03T05:00:46.723Z,32
2017-08-03T05:01:47.348Z,32
2017-08-03T05:02:47.966Z,32
2017-08-03T05:03:48.585Z,32
2017-08-03T05:04:49.310Z,32
2017-08-03T05:05:49.930Z,36
2017-08-03T05:06:50.556Z,36
2017-08-03T05:07:51.179Z,36
2017-08-03T05:08:51.797Z,36
2017-08-03T05:09:52.517Z,36
2017-08-03T05:10:53.140Z,36
2017-08-03T05:11:53.764Z,40
2017-08-03T05:12:54.382Z,40
2017-08-03T05:13:55.041Z,44
2017-08-03T05:14:55.767Z,44
2017-08-03T05:15:56.390Z,44
2017-08-03T05:16:57.007Z,48
2017-08-03T05:17:57.627Z,52
2017-08-03T05:18:58.255Z,52
2017-08-03T05:19:58.972Z,52
2017-08-03T05:20:59.590Z,56
2017-08-03T05:22:00.210Z,56
2017-08-03T05:23:00.833Z,56
2017-08-03T05:24:01.454Z,56
2017-08-03T05:25:02.174Z,56
2017-08-03T05:26:02.894Z,56
2017-08-03T05:27:03.519Z,56
2017-08-03T05:28:04.142Z,60
2017-08-03T05:29:04.762Z,64
2017-08-03T05:30:05.382Z,64
2017-08-03T05:31:06.104Z,64
2017-08-03T05:32:06.731Z,68
2017-08-03T05:33:07.348Z,68
2017-08-03T05:34:07.970Z,68
2017-08-03T05:35:08.593Z,68
2017-08-03T05:36:09.318Z,68
2017-08-03T05:37:09.933Z,68
2017-08-03T05:38:10.560Z,68
2017-08-03T05:39:11.179Z,64
2017-08-03T05:40:11.798Z,68
2017-08-03T05:41:12.518Z,64
2017-08-03T05:42:13.142Z,60
2017-08-03T05:43:13.862Z,60
2017-08-03T05:44:14.582Z,56
2017-08-03T05:45:15.209Z,56
2017-08-03T05:46:15.931Z,56
2017-08-03T05:47:16.580Z,60
2017-08-03T05:48:17.200Z,60
2017-08-03T05:49:17.820Z,56
2017-08-03T05:50:18.442Z,56
2017-08-03T05:51:19.167Z,60
2017-08-03T05:52:19.794Z,60
2017-08-03T05:53:20.411Z,60
2017-08-03T05:54:21.065Z,60
2017-08-03T05:55:21.686Z,60
2017-08-03T05:56:22.406Z,68
2017-08-03T05:57:23.058Z,72
2017-08-03T05:58:23.678Z,72
2017-08-03T05:59:24.299Z,80
2017-08-03T06:00:24.920Z,76
2017-08-03T06:01:25.680Z,80
2017-08-03T06:02:26.299Z,80
2017-08-03T06:03:26.921Z,84
2017-08-03T06:04:27.543Z,88
2017-08-03T06:05:28.166Z,92
2017-08-03T06:06:28.886Z,96
2017-08-03T06:07:29.507Z,100
2017-08-03T06:08:30.137Z,108
2017-08-03T06:09:30.758Z,116
2017-08-03T06:10:31.388Z,120
2017-08-03T06:11:32.105Z,128
2017-08-03T06:12:32.728Z,132
2017-08-03T06:13:33.352Z,140
2017-08-03T06:14:33.973Z,140
2017-08-03T06:15:34.595Z,144
2017-08-03T06:16:35.318Z,140
2017-08-03T06:17:36.045Z,136
2017-08-03T06:18:36.666Z,132
2017-08-03T06:19:37.289Z,136
2017-08-03T06:20:37.910Z,140
2017-08-03T06:21:38.539Z,144
2017-08-03T06:22:39.266Z,148
2017-08-03T06:23:39.885Z,148
2017-08-03T06:24:40.507Z,136
2017-08-03T06:25:41.139Z,144
2017-08-03T06:26:41.759Z,140
2017-08-03T06:27:42.482Z,136
2017-08-03T06:28:43.107Z,124
2017-08-03T06:29:43.730Z,112
2017-08-03T06:30:44.353Z,112
2017-08-03T06:31:44.975Z,116
2017-08-03T06:32:45.702Z,120
2017-08-03T06:33:46.324Z,124
2017-08-03T06:34:46.947Z,128
2017-08-03T06:35:47.569Z,132
2017-08-03T06:36:48.194Z,128
2017-08-03T06:37:48.916Z,136
2017-08-03T06:38:49.640Z,132
2017-08-03T06:39:50.268Z,108
2017-08-03T06:40:50.905Z,100
2017-08-03T06:41:51.545Z,96
2017-08-03T06:42:52.174Z,100
2017-08-03T06:43:52.896Z,104
2017-08-03T06:44:53.526Z,104
2017-08-03T06:45:54.146Z,108
2017-08-03T06:46:54.770Z,112
2017-08-03T06:47:55.397Z,128
2017-08-03T06:48:56.128Z,128
2017-08-03T06:49:56.755Z,128
2017-08-03T06:50:57.375Z,112
2017-08-03T06:51:57.998Z,124
2017-08-03T06:52:58.623Z,140
2017-08-03T06:53:59.382Z,144
2017-08-03T06:55:00.040Z,152
2017-08-03T06:56:00.663Z,160
2017-08-03T06:57:01.286Z,172
2017-08-03T06:58:01.908Z,176
2017-08-03T06:59:02.632Z,172
2017-08-03T07:00:03.262Z,156
2017-08-03T07:01:03.985Z,156
2017-08-03T07:02:04.606Z,156
2017-08-03T07:03:05.229Z,160
2017-08-03T07:04:05.858Z,176
2017-08-03T07:05:06.515Z,184
2017-08-03T07:06:07.240Z,176
2017-08-03T07:07:07.863Z,176
2017-08-03T07:08:08.494Z,148
2017-08-03T07:09:09.114Z,160
2017-08-03T07:10:09.837Z,156
2017-08-03T07:11:10.460Z,168
2017-08-03T07:12:11.088Z,180
2017-08-03T07:13:11.744Z,180
2017-08-03T07:14:12.369Z,184
2017-08-03T07:15:13.097Z,208
2017-08-03T07:16:13.717Z,208
2017-08-03T07:17:14.343Z,212
2017-08-03T07:18:14.971Z,184
2017-08-03T07:19:15.592Z,188
2017-08-03T07:20:16.322Z,176
2017-08-03T07:21:17.048Z,196
2017-08-03T07:22:17.769Z,168
2017-08-03T07:23:18.393Z,164
2017-08-03T07:24:19.017Z,168
2017-08-03T07:25:19.642Z,192
2017-08-03T07:26:20.366Z,176
2017-08-03T07:27:21.095Z,184
2017-08-03T07:28:21.746Z,188
2017-08-03T07:29:22.373Z,200
2017-08-03T07:30:23.033Z,208
2017-08-03T07:31:23.653Z,248
2017-08-03T07:32:24.380Z,240
2017-08-03T07:33:25.004Z,244
2017-08-03T07:34:25.629Z,244
2017-08-03T07:35:26.255Z,240
2017-08-03T07:36:26.878Z,248
2017-08-03T07:37:27.608Z,228
2017-08-03T07:38:28.231Z,228
2017-08-03T07:39:28.854Z,240
2017-08-03T07:40:29.578Z,248
2017-08-03T07:41:30.210Z,232
2017-08-03T07:42:30.834Z,256
2017-08-03T07:43:31.458Z,232
2017-08-03T07:44:32.085Z,216
2017-08-03T07:45:32.839Z,188
2017-08-03T07:46:33.463Z,152
2017-08-03T07:47:34.086Z,144
2017-08-03T07:48:34.710Z,148
2017-08-03T07:49:35.333Z,156
2017-08-03T07:50:36.058Z,160
2017-08-03T07:51:36.688Z,168
2017-08-03T07:52:37.309Z,180
2017-08-03T07:53:37.933Z,196
2017-08-03T07:54:38.558Z,208
2017-08-03T07:55:39.285Z,216
2017-08-03T07:56:39.910Z,212
2017-08-03T07:57:40.535Z,200
2017-08-03T07:58:41.161Z,192
2017-08-03T07:59:41.890Z,216
2017-08-03T08:00:42.612Z,172
2017-08-03T08:01:43.269Z,180
2017-08-03T08:02:43.893Z,180
2017-08-03T08:03:44.516Z,180
2017-08-03T08:04:45.142Z,184
2017-08-03T08:05:45.866Z,180
2017-08-03T08:06:46.524Z,188
2017-08-03T08:07:47.153Z,184
2017-08-03T08:08:47.784Z,188
2017-08-03T08:09:48.405Z,196
2017-08-03T08:10:49.130Z,204
2017-08-03T08:11:49.861Z,212
2017-08-03T08:12:50.484Z,212
2017-08-03T08:13:51.108Z,248
2017-08-03T08:14:51.739Z,300
2017-08-03T08:15:52.359Z,304
2017-08-03T08:16:53.116Z,244
2017-08-03T08:17:53.742Z,264
2017-08-03T08:18:54.469Z,308
2017-08-03T08:19:55.090Z,252
2017-08-03T08:20:55.717Z,292
2017-08-03T08:21:56.349Z,208
2017-08-03T08:22:56.969Z,224
2017-08-03T08:23:57.695Z,244
2017-08-03T08:24:58.313Z,252
2017-08-03T08:25:59.069Z,248
2017-08-03T08:26:59.793Z,344
2017-08-03T08:28:00.451Z,344
2017-08-03T08:29:01.074Z,344
2017-08-03T08:30:01.699Z,232
2017-08-03T08:31:02.323Z,220
2017-08-03T08:32:03.047Z,220
2017-08-03T08:33:03.773Z,232
2017-08-03T08:34:04.400Z,232
2017-08-03T08:35:05.023Z,220
2017-08-03T08:36:05.753Z,220
2017-08-03T08:37:06.442Z,224
2017-08-03T08:38:07.068Z,236
2017-08-03T08:39:07.690Z,244
2017-08-03T08:40:08.317Z,264
2017-08-03T08:41:09.041Z,240
2017-08-03T08:42:09.668Z,244
2017-08-03T08:43:10.397Z,256
2017-08-03T08:44:11.019Z,272
2017-08-03T08:45:11.652Z,276
2017-08-03T08:46:12.270Z,276
2017-08-03T08:47:12.896Z,276
2017-08-03T08:48:13.622Z,276
2017-08-03T08:49:14.343Z,272
2017-08-03T08:50:15.067Z,268
2017-08-03T08:51:15.693Z,260
2017-08-03T08:52:16.322Z,252
2017-08-03T08:53:17.044Z,248
2017-08-03T08:54:17.668Z,244
2017-08-03T08:55:18.294Z,208
2017-08-03T08:56:18.922Z,184
2017-08-03T08:57:19.545Z,180
2017-08-03T08:58:20.269Z,180
2017-08-03T08:59:21.002Z,180
2017-08-03T09:00:21.726Z,192
2017-08-03T09:01:22.353Z,212
2017-08-03T09:02:22.978Z,244
2017-08-03T09:03:23.703Z,284
2017-08-03T09:04:24.334Z,316
2017-08-03T09:05:25.054Z,344
2017-08-03T09:06:25.717Z,440
2017-08-03T09:07:26.345Z,356
2017-08-03T09:08:27.068Z,364
2017-08-03T09:09:27.693Z,392
2017-08-03T09:10:28.357Z,308
2017-08-03T09:11:28.986Z,296
2017-08-03T09:12:29.707Z,280
2017-08-03T09:13:30.431Z,264
2017-08-03T09:14:31.062Z,252
2017-08-03T09:15:31.711Z,256
2017-08-03T09:16:32.336Z,272
2017-08-03T09:17:32.964Z,280
2017-08-03T09:18:33.684Z,276
2017-08-03T09:19:34.308Z,252
2017-08-03T09:20:34.932Z,232
2017-08-03T09:21:35.560Z,212
2017-08-03T09:22:36.189Z,196
2017-08-03T09:23:36.910Z,196
2017-08-03T09:24:37.639Z,200
2017-08-03T09:25:38.260Z,212
2017-08-03T09:26:38.891Z,216
2017-08-03T09:27:39.513Z,220
2017-08-03T09:28:40.144Z,224
2017-08-03T09:29:40.865Z,232
2017-08-03T09:30:41.489Z,232
2017-08-03T09:31:42.116Z,232
2017-08-03T09:32:42.741Z,232
2017-08-03T09:33:43.364Z,228
2017-08-03T09:34:44.088Z,228
2017-08-03T09:35:44.724Z,240
2017-08-03T09:36:45.345Z,256
2017-08-03T09:37:45.966Z,284
2017-08-03T09:38:46.593Z,568
2017-08-03T09:39:47.319Z,444
2017-08-03T09:40:47.943Z,320
2017-08-03T09:41:48.569Z,628
2017-08-03T09:42:49.295Z,712
2017-08-03T09:43:49.919Z,416
2017-08-03T09:44:50.646Z,768
2017-08-03T09:45:51.271Z,496
2017-08-03T09:46:51.894Z,344
2017-08-03T09:47:52.619Z,320
2017-08-03T09:48:53.242Z,304
2017-08-03T09:49:53.868Z,292
2017-08-03T09:50:54.597Z,272
2017-08-03T09:51:55.227Z,248
2017-08-03T09:52:55.848Z,252
2017-08-03T09:53:56.781Z,268
2017-08-03T09:54:57.509Z,284
2017-08-03T09:55:58.237Z,300
2017-08-03T09:56:59.093Z,316
2017-08-03T09:57:59.878Z,340
2017-08-03T10:00:16.196Z,292
2017-08-03T10:01:17.029Z,272
2017-08-03T10:02:17.648Z,280
2017-08-03T10:03:18.274Z,268
2017-08-03T10:04:18.909Z,272
2017-08-03T10:05:19.785Z,268
2017-08-03T10:06:20.410Z,264
2017-08-03T10:07:21.033Z,272
2017-08-03T10:08:21.660Z,268
2017-08-03T10:09:22.284Z,272
2017-08-03T10:10:23.008Z,296
2017-08-03T10:11:23.656Z,272
2017-08-03T10:12:24.359Z,280
2017-08-03T10:13:25.089Z,288
2017-08-03T10:14:25.712Z,288
2017-08-03T10:15:26.333Z,276
2017-08-03T10:16:26.958Z,260
2017-08-03T10:17:27.617Z,244
2017-08-03T10:18:28.344Z,236
2017-08-03T10:19:28.969Z,232
2017-08-03T10:20:29.625Z,240
2017-08-03T10:21:30.249Z,260
2017-08-03T10:22:30.873Z,284
2017-08-03T10:23:31.600Z,308
2017-08-03T10:24:32.230Z,308
2017-08-03T10:25:32.852Z,420
2017-08-03T10:26:33.477Z,300
2017-08-03T10:27:34.141Z,272
2017-08-03T10:28:34.862Z,276
2017-08-03T10:29:35.488Z,288
2017-08-03T10:30:36.114Z,300
2017-08-03T10:31:36.742Z,308
2017-08-03T10:32:37.369Z,484
2017-08-03T10:33:38.088Z,304
2017-08-03T10:34:38.812Z,304
2017-08-03T10:35:39.438Z,316
2017-08-03T10:36:40.064Z,328
2017-08-03T10:37:40.689Z,472
2017-08-03T10:38:41.320Z,408
2017-08-03T10:39:42.045Z,400
2017-08-03T10:40:42.766Z,1024
2017-08-03T10:41:43.490Z,472
2017-08-03T10:42:44.121Z,1068
2017-08-03T10:43:44.742Z,736
2017-08-03T10:44:45.368Z,364
2017-08-03T10:45:45.994Z,356
2017-08-03T10:46:46.717Z,980
2017-08-03T10:47:47.347Z,436
2017-08-03T10:48:48.072Z,1040
2017-08-03T10:49:48.696Z,928
2017-08-03T10:50:49.427Z,768
2017-08-03T10:51:50.058Z,696
2017-08-03T10:52:50.681Z,984
2017-08-03T10:53:51.304Z,972
2017-08-03T10:54:51.930Z,960
2017-08-03T10:55:52.661Z,952
2017-08-03T10:56:53.285Z,760
2017-08-03T10:57:53.922Z,972
2017-08-03T10:58:54.573Z,988
2017-08-03T10:59:55.200Z,984
2017-08-03T11:00:55.925Z,972
2017-08-03T11:01:56.650Z,968
2017-08-03T11:02:57.280Z,968
2017-08-03T11:03:58.006Z,976
2017-08-03T11:04:58.631Z,1020
2017-08-03T11:05:59.297Z,1016
2017-08-03T11:07:00.263Z,472
2017-08-03T11:08:00.892Z,1052
2017-08-03T11:09:01.552Z,1044
2017-08-03T11:10:02.189Z,1044
2017-08-03T11:11:02.922Z,1052
2017-08-03T11:12:03.590Z,1064
2017-08-03T11:13:04.465Z,1068
2017-08-03T11:14:05.197Z,836
2017-08-03T11:15:05.920Z,756
2017-08-03T11:16:06.650Z,408
2017-08-03T11:17:07.311Z,592
2017-08-03T11:18:07.944Z,480
2017-08-03T11:19:08.610Z,500
2017-08-03T11:20:09.339Z,1124
2017-08-03T11:21:10.065Z,720
2017-08-03T11:22:10.692Z,380
2017-08-03T11:23:11.320Z,412
2017-08-03T11:24:12.051Z,408
2017-08-03T11:25:12.683Z,416
2017-08-03T11:26:13.412Z,712
2017-08-03T11:27:14.038Z,572
2017-08-03T11:28:14.670Z,628
2017-08-03T11:29:15.297Z,628
2017-08-03T11:30:15.929Z,608
2017-08-03T11:31:16.669Z,1164
2017-08-03T11:32:17.429Z,984
2017-08-03T11:33:18.054Z,472
2017-08-03T11:34:18.686Z,448
2017-08-03T11:35:19.311Z,404
2017-08-03T11:36:20.035Z,488
2017-08-03T11:37:20.762Z,388
2017-08-03T11:38:21.390Z,368
2017-08-03T11:39:22.122Z,400
2017-08-03T11:40:22.745Z,476
2017-08-03T11:41:23.473Z,964
2017-08-03T11:42:24.199Z,436
2017-08-03T11:43:24.832Z,416
2017-08-03T11:44:25.469Z,520
2017-08-03T11:45:26.101Z,480
2017-08-03T11:46:26.732Z,676
2017-08-03T11:47:27.457Z,1248
2017-08-03T11:48:28.186Z,476
2017-08-03T11:49:28.912Z,448
2017-08-03T11:50:29.639Z,500
2017-08-03T11:51:30.264Z,528
2017-08-03T11:52:30.892Z,560
2017-08-03T11:53:31.520Z,544
2017-08-03T11:54:32.245Z,488
2017-08-03T11:55:32.973Z,640
2017-08-03T11:56:33.600Z,480
2017-08-03T11:57:34.224Z,504
2017-08-03T11:58:34.951Z,760
2017-08-03T11:59:35.580Z,1120
2017-08-03T12:00:36.304Z,472
2017-08-03T12:01:36.940Z,1132
2017-08-03T12:02:37.669Z,1112
2017-08-03T12:03:38.401Z,1148
2017-08-03T12:04:39.032Z,1196
2017-08-03T12:05:39.761Z,1008
2017-08-03T12:06:40.389Z,712
2017-08-03T12:07:41.118Z,1244
2017-08-03T12:08:41.742Z,448
2017-08-03T12:09:42.468Z,416
2017-08-03T12:10:43.098Z,436
2017-08-03T12:11:43.881Z,1064
2017-08-03T12:12:44.606Z,448
2017-08-03T12:13:45.233Z,1168
2017-08-03T12:14:45.963Z,1144
2017-08-03T12:15:46.691Z,1100
2017-08-03T12:16:47.353Z,960
2017-08-03T12:17:48.080Z,1088
2017-08-03T12:18:48.808Z,1072
2017-08-03T12:19:49.448Z,1068
2017-08-03T12:20:50.115Z,1068
2017-08-03T12:21:50.741Z,1080
2017-08-03T12:22:51.474Z,1084
2017-08-03T12:23:52.199Z,1088
2017-08-03T12:24:52.928Z,1080
2017-08-03T12:25:53.562Z,1016
2017-08-03T12:26:54.290Z,1072
2017-08-03T12:27:55.018Z,1076
2017-08-03T12:28:55.655Z,1072
2017-08-03T12:29:56.281Z,1072
2017-08-03T12:30:57.008Z,1076
2017-08-03T12:31:57.642Z,1080
2017-08-03T12:32:58.418Z,1076
2017-08-03T12:33:59.152Z,1080
2017-08-03T12:34:59.790Z,1084
2017-08-03T12:36:00.416Z,1084
2017-08-03T12:37:01.048Z,1088
2017-08-03T12:38:01.677Z,1092
2017-08-03T12:39:02.408Z,1092
2017-08-03T12:40:03.138Z,1092
2017-08-03T12:41:03.766Z,1096
2017-08-03T12:42:04.400Z,1104
2017-08-03T12:43:05.068Z,1108
2017-08-03T12:44:05.795Z,1056
2017-08-03T12:45:06.429Z,444
2017-08-03T12:46:07.366Z,1124
2017-08-03T12:47:08.138Z,1120
2017-08-03T12:48:08.766Z,436
2017-08-03T12:49:09.403Z,1144
2017-08-03T12:50:10.029Z,1080
2017-08-03T12:51:10.689Z,1128
2017-08-03T12:52:11.420Z,1104
2017-08-03T12:53:12.353Z,1112
2017-08-03T12:54:12.986Z,1116
2017-08-03T12:55:13.655Z,1116
2017-08-03T12:56:14.384Z,1108
2017-08-03T12:57:15.114Z,1104
2017-08-03T12:58:15.881Z,1108
2017-08-03T12:59:16.807Z,1108
2017-08-03T13:00:17.441Z,1108
2017-08-03T13:01:18.173Z,1108
2017-08-03T13:02:18.802Z,1104
2017-08-03T13:03:19.430Z,1112
2017-08-03T13:04:20.063Z,1112
2017-08-03T13:05:20.830Z,900
2017-08-03T13:06:21.464Z,1112
2017-08-03T13:07:22.190Z,1116
2017-08-03T13:08:22.924Z,1116
2017-08-03T13:09:23.560Z,1096
2017-08-03T13:10:24.187Z,1128
2017-08-03T13:11:24.815Z,1132
2017-08-03T13:12:25.543Z,1008
2017-08-03T13:13:26.173Z,1148
2017-08-03T13:14:26.902Z,1132
2017-08-03T13:15:27.536Z,1128
2017-08-03T13:16:28.277Z,1136
2017-08-03T13:17:29.006Z,1116
2017-08-03T13:18:29.634Z,1136
2017-08-03T13:19:30.367Z,1128
2017-08-03T13:20:31.001Z,1128
2017-08-03T13:21:31.734Z,1124
2017-08-03T13:22:32.397Z,1128
2017-08-03T13:23:33.031Z,1120
2017-08-03T13:24:33.662Z,1116
2017-08-03T13:25:34.292Z,1116
2017-08-03T13:26:35.020Z,1128
2017-08-03T13:27:35.751Z,1128
2017-08-03T13:28:36.382Z,1128
2017-08-03T13:29:37.015Z,1124
2017-08-03T13:30:37.746Z,1132
2017-08-03T13:31:38.377Z,1144
2017-08-03T13:32:39.107Z,1140
2017-08-03T13:33:39.837Z,1144
2017-08-03T13:34:40.475Z,1156
2017-08-03T13:35:41.203Z,1168
2017-08-03T13:36:41.867Z,1176
2017-08-03T13:37:42.597Z,1168
2017-08-03T13:38:43.328Z,1192
2017-08-03T13:39:43.964Z,1176
2017-08-03T13:40:44.597Z,1172
2017-08-03T13:41:45.326Z,1184
2017-08-03T13:42:45.957Z,1212
2017-08-03T13:43:46.593Z,1248
2017-08-03T13:44:47.219Z,1224
2017-08-03T13:45:47.981Z,1204
2017-08-03T13:46:48.612Z,1224
2017-08-03T13:47:49.342Z,1248
2017-08-03T13:48:50.076Z,1260
2017-08-03T13:49:50.706Z,1308
2017-08-03T13:50:51.336Z,1304
2017-08-03T13:51:52.069Z,1308
2017-08-03T13:52:52.801Z,1264
2017-08-03T13:53:53.433Z,1256
2017-08-03T13:54:54.101Z,400
2017-08-03T13:55:54.727Z,456
2017-08-03T13:56:55.358Z,1300
2017-08-03T13:57:56.088Z,1260
2017-08-03T13:58:56.818Z,848
2017-08-03T13:59:57.451Z,1052
2017-08-03T14:00:58.086Z,1236
2017-08-03T14:01:58.715Z,1252
2017-08-03T14:02:59.453Z,1244
2017-08-03T14:04:00.076Z,1236
2017-08-03T14:05:00.817Z,1232
2017-08-03T14:06:01.540Z,832
2017-08-03T14:07:02.270Z,1384
2017-08-03T14:08:02.940Z,1296
2017-08-03T14:09:03.570Z,1372
2017-08-03T14:10:04.198Z,1400
2017-08-03T14:11:04.933Z,804
2017-08-03T14:12:05.565Z,532
2017-08-03T14:13:06.297Z,1440
2017-08-03T14:14:07.028Z,512